sensor_id;sensor_type;location;lat;lon;timestamp;temperature;humidity
66373;SHT30;53168;51.146;17.120;2024-02-14T00:00:49;1.59;79.40
66373;SHT30;53168;51.146;17.120;2024-02-14T00:03:40;1.64;79.49
66373;SHT30;53168;51.146;17.120;2024-02-14T00:06:15;1.64;79.42
66373;SHT30;53168;51.146;17.120;2024-02-14T00:08:51;1.63;79.46
66373;SHT30;53168;51.146;17.120;2024-02-14T00:11:25;1.61;79.50
66373;SHT30;53168;51.146;17.120;2024-02-14T00:14:01;1.62;79.60
66373;SHT30;53168;51.146;17.120;2024-02-14T00:16:36;1.59;79.62
66373;SHT30;53168;51.146;17.120;2024-02-14T00:19:12;1.56;79.69
66373;SHT30;53168;51.146;17.120;2024-02-14T00:21:47;1.53;79.70
66373;SHT30;53168;51.146;17.120;2024-02-14T00:24:22;1.50;79.70
66373;SHT30;53168;51.146;17.120;2024-02-14T00:26:58;1.47;79.71
66373;SHT30;53168;51.146;17.120;2024-02-14T00:29:35;1.44;79.70
66373;SHT30;53168;51.146;17.120;2024-02-14T00:32:10;1.41;79.69
66373;SHT30;53168;51.146;17.120;2024-02-14T00:34:45;1.40;79.78
66373;SHT30;53168;51.146;17.120;2024-02-14T00:37:22;1.40;79.80
66373;SHT30;53168;51.146;17.120;2024-02-14T00:39:57;1.39;79.78
66373;SHT30;53168;51.146;17.120;2024-02-14T00:42:32;1.40;79.70
66373;SHT30;53168;51.146;17.120;2024-02-14T00:45:09;1.41;79.63
66373;SHT30;53168;51.146;17.120;2024-02-14T00:47:44;1.44;79.60
66373;SHT30;53168;51.146;17.120;2024-02-14T00:50:19;1.48;79.64
66373;SHT30;53168;51.146;17.120;2024-02-14T00:52:53;1.51;79.60
66373;SHT30;53168;51.146;17.120;2024-02-14T00:55:28;1.53;79.58
66373;SHT30;53168;51.146;17.120;2024-02-14T00:58:03;1.52;79.50
66373;SHT30;53168;51.146;17.120;2024-02-14T01:00:38;1.51;79.58
66373;SHT30;53168;51.146;17.120;2024-02-14T01:03:13;1.47;79.59
66373;SHT30;53168;51.146;17.120;2024-02-14T01:05:49;1.45;79.70
66373;SHT30;53168;51.146;17.120;2024-02-14T01:08:24;1.49;79.83
66373;SHT30;53168;51.146;17.120;2024-02-14T01:10:59;1.50;79.81
66373;SHT30;53168;51.146;17.120;2024-02-14T01:13:34;1.51;79.81
66373;SHT30;53168;51.146;17.120;2024-02-14T01:16:09;1.47;79.80
66373;SHT30;53168;51.146;17.120;2024-02-14T01:18:44;1.47;79.81
66373;SHT30;53168;51.146;17.120;2024-02-14T01:21:20;1.47;79.83
66373;SHT30;53168;51.146;17.120;2024-02-14T01:23:54;1.45;79.85
66373;SHT30;53168;51.146;17.120;2024-02-14T01:26:28;1.39;79.78
66373;SHT30;53168;51.146;17.120;2024-02-14T01:29:03;1.33;79.80
66373;SHT30;53168;51.146;17.120;2024-02-14T01:31:38;1.27;79.81
66373;SHT30;53168;51.146;17.120;2024-02-14T01:34:13;1.23;79.90
66373;SHT30;53168;51.146;17.120;2024-02-14T01:36:49;1.16;79.93
66373;SHT30;53168;51.146;17.120;2024-02-14T01:39:25;1.10;79.91
66373;SHT30;53168;51.146;17.120;2024-02-14T01:42:00;1.06;79.91
66373;SHT30;53168;51.146;17.120;2024-02-14T01:44:38;1.00;80.00
66373;SHT30;53168;51.146;17.120;2024-02-14T01:47:15;0.93;80.00
66373;SHT30;53168;51.146;17.120;2024-02-14T01:49:50;0.90;80.09
66373;SHT30;53168;51.146;17.120;2024-02-14T01:52:25;0.89;80.09
66373;SHT30;53168;51.146;17.120;2024-02-14T01:55:01;0.87;80.10
66373;SHT30;53168;51.146;17.120;2024-02-14T01:57:40;0.83;80.08
66373;SHT30;53168;51.146;17.120;2024-02-14T02:00:16;0.76;80.01
66373;SHT30;53168;51.146;17.120;2024-02-14T02:02:52;0.70;80.03
66373;SHT30;53168;51.146;17.120;2024-02-14T02:05:58;0.65;80.16
66373;SHT30;53168;51.146;17.120;2024-02-14T02:08:33;0.62;80.23
66373;SHT30;53168;51.146;17.120;2024-02-14T02:11:11;0.58;80.30
66373;SHT30;53168;51.146;17.120;2024-02-14T02:13:45;0.54;80.30
66373;SHT30;53168;51.146;17.120;2024-02-14T02:16:20;0.49;80.31
66373;SHT30;53168;51.146;17.120;2024-02-14T02:18:55;0.44;80.34
66373;SHT30;53168;51.146;17.120;2024-02-14T02:21:30;0.38;80.37
66373;SHT30;53168;51.146;17.120;2024-02-14T02:24:09;0.33;80.39
66373;SHT30;53168;51.146;17.120;2024-02-14T02:26:44;0.31;80.48
66373;SHT30;53168;51.146;17.120;2024-02-14T02:29:19;0.26;80.50
66373;SHT30;53168;51.146;17.120;2024-02-14T02:31:54;0.20;80.53
66373;SHT30;53168;51.146;17.120;2024-02-14T02:34:31;0.18;80.67
66373;SHT30;53168;51.146;17.120;2024-02-14T02:37:06;0.16;80.74
66373;SHT30;53168;51.146;17.120;2024-02-14T02:39:41;0.14;80.80
66373;SHT30;53168;51.146;17.120;2024-02-14T02:42:16;0.10;80.80
66373;SHT30;53168;51.146;17.120;2024-02-14T02:44:52;0.07;80.80
66373;SHT30;53168;51.146;17.120;2024-02-14T02:47:27;0.06;80.87
66373;SHT30;53168;51.146;17.120;2024-02-14T02:50:02;0.05;80.90
66373;SHT30;53168;51.146;17.120;2024-02-14T02:52:39;0.03;80.89
66373;SHT30;53168;51.146;17.120;2024-02-14T02:55:14;0.02;80.90
66373;SHT30;53168;51.146;17.120;2024-02-14T02:57:50;0.00;80.92
66373;SHT30;53168;51.146;17.120;2024-02-14T03:00:24;-0.03;80.90
66373;SHT30;53168;51.146;17.120;2024-02-14T03:02:59;-0.06;80.95
66373;SHT30;53168;51.146;17.120;2024-02-14T03:05:36;-0.09;81.00
66373;SHT30;53168;51.146;17.120;2024-02-14T03:08:11;-0.09;81.08
66373;SHT30;53168;51.146;17.120;2024-02-14T03:10:47;-0.11;81.16
66373;SHT30;53168;51.146;17.120;2024-02-14T03:13:22;-0.15;81.20
66373;SHT30;53168;51.146;17.120;2024-02-14T03:15:57;-0.16;81.20
66373;SHT30;53168;51.146;17.120;2024-02-14T03:18:33;-0.19;81.20
66373;SHT30;53168;51.146;17.120;2024-02-14T03:21:09;-0.21;81.24
66373;SHT30;53168;51.146;17.120;2024-02-14T03:23:44;-0.26;81.22
66373;SHT30;53168;51.146;17.120;2024-02-14T03:26:19;-0.27;81.21
66373;SHT30;53168;51.146;17.120;2024-02-14T03:28:54;-0.28;81.22
66373;SHT30;53168;51.146;17.120;2024-02-14T03:31:29;-0.31;81.20
66373;SHT30;53168;51.146;17.120;2024-02-14T03:34:03;-0.32;81.27
66373;SHT30;53168;51.146;17.120;2024-02-14T03:36:39;-0.34;81.30
66373;SHT30;53168;51.146;17.120;2024-02-14T03:39:14;-0.37;81.30
66373;SHT30;53168;51.146;17.120;2024-02-14T03:41:49;-0.41;81.29
66373;SHT30;53168;51.146;17.120;2024-02-14T03:44:24;-0.44;81.31
66373;SHT30;53168;51.146;17.120;2024-02-14T03:46:59;-0.45;81.40
66373;SHT30;53168;51.146;17.120;2024-02-14T03:49:34;-0.45;81.57
66373;SHT30;53168;51.146;17.120;2024-02-14T03:52:08;-0.39;82.00
66373;SHT30;53168;51.146;17.120;2024-02-14T03:54:44;-0.36;82.10
66373;SHT30;53168;51.146;17.120;2024-02-14T03:57:18;-0.35;82.11
66373;SHT30;53168;51.146;17.120;2024-02-14T03:59:54;-0.32;82.20
66373;SHT30;53168;51.146;17.120;2024-02-14T04:02:30;-0.29;82.25
66373;SHT30;53168;51.146;17.120;2024-02-14T04:05:10;-0.24;82.31
66373;SHT30;53168;51.146;17.120;2024-02-14T04:07:45;-0.20;82.36
66373;SHT30;53168;51.146;17.120;2024-02-14T04:10:23;-0.14;82.40
66373;SHT30;53168;51.146;17.120;2024-02-14T04:12:58;-0.11;82.41
66373;SHT30;53168;51.146;17.120;2024-02-14T04:15:33;-0.08;82.49
66373;SHT30;53168;51.146;17.120;2024-02-14T04:18:08;-0.05;82.50
66373;SHT30;53168;51.146;17.120;2024-02-14T04:20:43;-0.03;82.50
66373;SHT30;53168;51.146;17.120;2024-02-14T04:23:18;0.00;82.51
66373;SHT30;53168;51.146;17.120;2024-02-14T04:25:53;0.03;82.53
66373;SHT30;53168;51.146;17.120;2024-02-14T04:28:31;0.04;82.52
66373;SHT30;53168;51.146;17.120;2024-02-14T04:31:05;0.05;82.50
66373;SHT30;53168;51.146;17.120;2024-02-14T04:33:42;0.08;82.51
66373;SHT30;53168;51.146;17.120;2024-02-14T04:36:22;0.09;82.52
66373;SHT30;53168;51.146;17.120;2024-02-14T04:39:01;0.09;82.57
66373;SHT30;53168;51.146;17.120;2024-02-14T04:41:42;0.10;82.51
66373;SHT30;53168;51.146;17.120;2024-02-14T04:44:27;0.12;82.50
66373;SHT30;53168;51.146;17.120;2024-02-14T04:47:03;0.16;82.51
66373;SHT30;53168;51.146;17.120;2024-02-14T04:49:37;0.17;82.57
66373;SHT30;53168;51.146;17.120;2024-02-14T04:52:12;0.18;82.59
66373;SHT30;53168;51.146;17.120;2024-02-14T04:54:47;0.18;82.53
66373;SHT30;53168;51.146;17.120;2024-02-14T04:57:22;0.17;82.50
66373;SHT30;53168;51.146;17.120;2024-02-14T04:59:57;0.16;82.49
66373;SHT30;53168;51.146;17.120;2024-02-14T05:02:32;0.16;82.50
66373;SHT30;53168;51.146;17.120;2024-02-14T05:05:08;0.16;82.51
66373;SHT30;53168;51.146;17.120;2024-02-14T05:07:43;0.16;82.50
66373;SHT30;53168;51.146;17.120;2024-02-14T05:10:17;0.17;82.58
66373;SHT30;53168;51.146;17.120;2024-02-14T05:12:52;0.17;82.61
66373;SHT30;53168;51.146;17.120;2024-02-14T05:15:27;0.16;82.60
66373;SHT30;53168;51.146;17.120;2024-02-14T05:18:02;0.18;82.66
66373;SHT30;53168;51.146;17.120;2024-02-14T05:20:38;0.20;82.70
66373;SHT30;53168;51.146;17.120;2024-02-14T05:23:13;0.19;82.70
66373;SHT30;53168;51.146;17.120;2024-02-14T05:25:49;0.19;82.70
66373;SHT30;53168;51.146;17.120;2024-02-14T05:28:24;0.19;82.70
66373;SHT30;53168;51.146;17.120;2024-02-14T05:31:01;0.19;82.72
66373;SHT30;53168;51.146;17.120;2024-02-14T05:33:36;0.19;82.78
66373;SHT30;53168;51.146;17.120;2024-02-14T05:36:11;0.20;82.80
66373;SHT30;53168;51.146;17.120;2024-02-14T05:38:46;0.20;82.79
66373;SHT30;53168;51.146;17.120;2024-02-14T05:41:20;0.22;82.75
66373;SHT30;53168;51.146;17.120;2024-02-14T05:43:56;0.23;82.71
66373;SHT30;53168;51.146;17.120;2024-02-14T05:46:31;0.24;82.70
66373;SHT30;53168;51.146;17.120;2024-02-14T05:49:06;0.25;82.70
66373;SHT30;53168;51.146;17.120;2024-02-14T05:51:41;0.28;82.70
66373;SHT30;53168;51.146;17.120;2024-02-14T05:54:16;0.30;82.69
66373;SHT30;53168;51.146;17.120;2024-02-14T05:56:50;0.34;82.62
66373;SHT30;53168;51.146;17.120;2024-02-14T05:59:25;0.37;82.61
66373;SHT30;53168;51.146;17.120;2024-02-14T06:02:00;0.39;82.60
66373;SHT30;53168;51.146;17.120;2024-02-14T06:04:37;0.42;82.60
66373;SHT30;53168;51.146;17.120;2024-02-14T06:07:14;0.44;82.60
66373;SHT30;53168;51.146;17.120;2024-02-14T06:09:49;0.46;82.60
66373;SHT30;53168;51.146;17.120;2024-02-14T06:12:24;0.47;82.52
66373;SHT30;53168;51.146;17.120;2024-02-14T06:14:58;0.46;82.49
66373;SHT30;53168;51.146;17.120;2024-02-14T06:17:33;0.46;82.51
66373;SHT30;53168;51.146;17.120;2024-02-14T06:20:10;0.45;82.50
66373;SHT30;53168;51.146;17.120;2024-02-14T06:22:46;0.43;82.50
66373;SHT30;53168;51.146;17.120;2024-02-14T06:25:35;0.43;82.52
66373;SHT30;53168;51.146;17.120;2024-02-14T06:28:09;0.44;82.50
66373;SHT30;53168;51.146;17.120;2024-02-14T06:30:44;0.43;82.50
66373;SHT30;53168;51.146;17.120;2024-02-14T06:33:18;0.44;82.52
66373;SHT30;53168;51.146;17.120;2024-02-14T06:35:53;0.45;82.54
66373;SHT30;53168;51.146;17.120;2024-02-14T06:38:28;0.46;82.50
66373;SHT30;53168;51.146;17.120;2024-02-14T06:41:05;0.49;82.50
66373;SHT30;53168;51.146;17.120;2024-02-14T06:43:39;0.51;82.50
66373;SHT30;53168;51.146;17.120;2024-02-14T06:46:14;0.52;82.50
66373;SHT30;53168;51.146;17.120;2024-02-14T06:48:49;0.52;82.50
66373;SHT30;53168;51.146;17.120;2024-02-14T06:51:24;0.53;82.50
66373;SHT30;53168;51.146;17.120;2024-02-14T06:53:59;0.55;82.58
66373;SHT30;53168;51.146;17.120;2024-02-14T06:56:37;0.59;82.60
66373;SHT30;53168;51.146;17.120;2024-02-14T06:59:11;0.65;82.66
66373;SHT30;53168;51.146;17.120;2024-02-14T07:01:46;0.72;82.62
66373;SHT30;53168;51.146;17.120;2024-02-14T07:04:21;0.77;82.60
66373;SHT30;53168;51.146;17.120;2024-02-14T07:06:58;0.82;82.58
66373;SHT30;53168;51.146;17.120;2024-02-14T07:09:33;0.87;82.60
66373;SHT30;53168;51.146;17.120;2024-02-14T07:12:10;0.94;82.60
66373;SHT30;53168;51.146;17.120;2024-02-14T07:14:47;1.03;82.60
66373;SHT30;53168;51.146;17.120;2024-02-14T07:17:26;1.15;82.59
66373;SHT30;53168;51.146;17.120;2024-02-14T07:20:05;1.26;82.53
66373;SHT30;53168;51.146;17.120;2024-02-14T07:22:57;1.38;82.45
66373;SHT30;53168;51.146;17.120;2024-02-14T07:25:39;1.49;82.34
66373;SHT30;53168;51.146;17.120;2024-02-14T07:28:32;1.60;82.30
66373;SHT30;53168;51.146;17.120;2024-02-14T07:31:27;1.76;82.23
66373;SHT30;53168;51.146;17.120;2024-02-14T07:34:04;1.87;82.12
66373;SHT30;53168;51.146;17.120;2024-02-14T07:36:40;1.99;82.00
66373;SHT30;53168;51.146;17.120;2024-02-14T07:39:17;2.13;81.96
66373;SHT30;53168;51.146;17.120;2024-02-14T07:41:52;2.21;81.85
66373;SHT30;53168;51.146;17.120;2024-02-14T07:44:28;2.29;81.69
66373;SHT30;53168;51.146;17.120;2024-02-14T07:47:03;2.39;81.60
66373;SHT30;53168;51.146;17.120;2024-02-14T07:52:55;2.64;81.42
66373;SHT30;53168;51.146;17.120;2024-02-14T07:55:31;2.76;81.31
66373;SHT30;53168;51.146;17.120;2024-02-14T07:58:08;2.85;81.16
66373;SHT30;53168;51.146;17.120;2024-02-14T08:00:45;2.90;81.01
66373;SHT30;53168;51.146;17.120;2024-02-14T08:03:20;2.96;81.04
66373;SHT30;53168;51.146;17.120;2024-02-14T08:05:56;3.06;81.05
66373;SHT30;53168;51.146;17.120;2024-02-14T08:08:33;3.16;80.94
66373;SHT30;53168;51.146;17.120;2024-02-14T08:11:11;3.31;80.92
66373;SHT30;53168;51.146;17.120;2024-02-14T08:13:46;3.49;80.86
66373;SHT30;53168;51.146;17.120;2024-02-14T08:16:24;3.63;80.72
66373;SHT30;53168;51.146;17.120;2024-02-14T08:19:20;3.75;80.52
66373;SHT30;53168;51.146;17.120;2024-02-14T08:21:56;3.84;80.37
66373;SHT30;53168;51.146;17.120;2024-02-14T08:24:32;3.93;80.30
66373;SHT30;53168;51.146;17.120;2024-02-14T08:27:10;4.03;80.23
66373;SHT30;53168;51.146;17.120;2024-02-14T08:29:48;4.11;80.06
66373;SHT30;53168;51.146;17.120;2024-02-14T08:32:24;4.22;79.97
66373;SHT30;53168;51.146;17.120;2024-02-14T08:34:59;4.33;79.89
66373;SHT30;53168;51.146;17.120;2024-02-14T08:37:35;4.43;79.72
66373;SHT30;53168;51.146;17.120;2024-02-14T08:40:14;4.54;79.69
66373;SHT30;53168;51.146;17.120;2024-02-14T08:42:50;4.65;79.53
66373;SHT30;53168;51.146;17.120;2024-02-14T08:45:25;4.73;79.30
66373;SHT30;53168;51.146;17.120;2024-02-14T08:48:01;4.78;79.17
66373;SHT30;53168;51.146;17.120;2024-02-14T08:50:37;4.86;79.04
66373;SHT30;53168;51.146;17.120;2024-02-14T08:53:15;4.96;78.88
66373;SHT30;53168;51.146;17.120;2024-02-14T08:55:52;5.10;78.92
66373;SHT30;53168;51.146;17.120;2024-02-14T08:58:27;5.29;78.97
66373;SHT30;53168;51.146;17.120;2024-02-14T09:01:03;5.50;78.67
66373;SHT30;53168;51.146;17.120;2024-02-14T09:03:47;5.74;78.40
66373;SHT30;53168;51.146;17.120;2024-02-14T09:06:23;5.91;78.02
66373;SHT30;53168;51.146;17.120;2024-02-14T09:09:02;6.07;77.73
66373;SHT30;53168;51.146;17.120;2024-02-14T09:11:43;6.28;77.48
66373;SHT30;53168;51.146;17.120;2024-02-14T09:14:20;6.47;77.03
66373;SHT30;53168;51.146;17.120;2024-02-14T09:17:00;6.64;76.99
66373;SHT30;53168;51.146;17.120;2024-02-14T09:19:35;6.77;76.67
66373;SHT30;53168;51.146;17.120;2024-02-14T09:22:10;6.88;76.48
66373;SHT30;53168;51.146;17.120;2024-02-14T09:24:52;7.03;76.22
66373;SHT30;53168;51.146;17.120;2024-02-14T09:27:28;7.21;76.09
66373;SHT30;53168;51.146;17.120;2024-02-14T09:30:06;7.38;75.67
66373;SHT30;53168;51.146;17.120;2024-02-14T09:32:56;7.54;75.69
66373;SHT30;53168;51.146;17.120;2024-02-14T09:35:32;7.67;75.09
66373;SHT30;53168;51.146;17.120;2024-02-14T09:38:09;7.79;75.03
66373;SHT30;53168;51.146;17.120;2024-02-14T09:40:45;7.90;74.87
66373;SHT30;53168;51.146;17.120;2024-02-14T09:43:31;8.01;74.89
66373;SHT30;53168;51.146;17.120;2024-02-14T09:46:08;8.15;74.50
66373;SHT30;53168;51.146;17.120;2024-02-14T09:48:47;8.22;74.29
66373;SHT30;53168;51.146;17.120;2024-02-14T09:51:25;8.32;74.38
66373;SHT30;53168;51.146;17.120;2024-02-14T09:54:03;8.46;74.09
66373;SHT30;53168;51.146;17.120;2024-02-14T09:56:38;8.48;73.44
66373;SHT30;53168;51.146;17.120;2024-02-14T09:59:17;8.43;73.22
66373;SHT30;53168;51.146;17.120;2024-02-14T10:01:52;8.43;73.23
66373;SHT30;53168;51.146;17.120;2024-02-14T10:04:28;8.43;73.14
66373;SHT30;53168;51.146;17.120;2024-02-14T10:07:05;8.50;72.93
66373;SHT30;53168;51.146;17.120;2024-02-14T10:09:45;8.57;72.84
66373;SHT30;53168;51.146;17.120;2024-02-14T10:12:20;8.68;72.59
66373;SHT30;53168;51.146;17.120;2024-02-14T10:14:57;8.77;71.94
66373;SHT30;53168;51.146;17.120;2024-02-14T10:17:34;8.82;71.77
66373;SHT30;53168;51.146;17.120;2024-02-14T10:20:18;8.94;71.50
66373;SHT30;53168;51.146;17.120;2024-02-14T10:23:01;9.04;71.14
66373;SHT30;53168;51.146;17.120;2024-02-14T10:25:37;9.15;70.96
66373;SHT30;53168;51.146;17.120;2024-02-14T10:28:12;9.22;70.47
66373;SHT30;53168;51.146;17.120;2024-02-14T10:30:50;9.32;70.74
66373;SHT30;53168;51.146;17.120;2024-02-14T10:33:29;9.49;70.86
66373;SHT30;53168;51.146;17.120;2024-02-14T10:36:05;9.65;70.65
66373;SHT30;53168;51.146;17.120;2024-02-14T10:38:48;9.73;69.97
66373;SHT30;53168;51.146;17.120;2024-02-14T10:41:25;9.84;69.78
66373;SHT30;53168;51.146;17.120;2024-02-14T10:44:07;9.90;69.29
66373;SHT30;53168;51.146;17.120;2024-02-14T10:59:18;9.85;68.46
66373;SHT30;53168;51.146;17.120;2024-02-14T11:01:56;9.89;68.74
66373;SHT30;53168;51.146;17.120;2024-02-14T11:04:34;9.97;68.54
66373;SHT30;53168;51.146;17.120;2024-02-14T11:07:13;10.03;68.15
66373;SHT30;53168;51.146;17.120;2024-02-14T11:16:04;10.35;67.31
66373;SHT30;53168;51.146;17.120;2024-02-14T11:18:39;10.50;67.00
66373;SHT30;53168;51.146;17.120;2024-02-14T11:21:17;10.62;66.75
66373;SHT30;53168;51.146;17.120;2024-02-14T11:35:30;11.23;66.67
66373;SHT30;53168;51.146;17.120;2024-02-14T11:38:09;11.39;66.59
66373;SHT30;53168;51.146;17.120;2024-02-14T11:40:45;11.62;66.37
66373;SHT30;53168;51.146;17.120;2024-02-14T11:43:28;11.79;64.57
66373;SHT30;53168;51.146;17.120;2024-02-14T11:46:05;11.75;64.35
66373;SHT30;53168;51.146;17.120;2024-02-14T11:48:43;11.79;64.59
66373;SHT30;53168;51.146;17.120;2024-02-14T11:51:20;11.81;64.62
66373;SHT30;53168;51.146;17.120;2024-02-14T11:53:57;11.87;64.28
66373;SHT30;53168;51.146;17.120;2024-02-14T11:56:58;11.91;63.86
66373;SHT30;53168;51.146;17.120;2024-02-14T11:59:37;11.76;63.83
66373;SHT30;53168;51.146;17.120;2024-02-14T12:09:59;11.20;64.26
66373;SHT30;53168;51.146;17.120;2024-02-14T12:12:36;11.17;64.44
66373;SHT30;53168;51.146;17.120;2024-02-14T12:15:18;11.12;64.37
66373;SHT30;53168;51.146;17.120;2024-02-14T12:17:56;11.09;64.36
66373;SHT30;53168;51.146;17.120;2024-02-14T12:20:31;11.03;64.40
66373;SHT30;53168;51.146;17.120;2024-02-14T12:23:07;10.96;64.40
66373;SHT30;53168;51.146;17.120;2024-02-14T12:25:49;10.87;64.29
66373;SHT30;53168;51.146;17.120;2024-02-14T12:28:24;10.79;64.54
66373;SHT30;53168;51.146;17.120;2024-02-14T12:31:02;10.74;64.64
66373;SHT30;53168;51.146;17.120;2024-02-14T12:33:37;10.71;64.70
66373;SHT30;53168;51.146;17.120;2024-02-14T12:36:12;10.69;64.50
66373;SHT30;53168;51.146;17.120;2024-02-14T12:38:49;10.68;64.56
66373;SHT30;53168;51.146;17.120;2024-02-14T12:41:25;10.73;64.63
66373;SHT30;53168;51.146;17.120;2024-02-14T12:44:01;10.81;64.48
66373;SHT30;53168;51.146;17.120;2024-02-14T12:46:37;10.96;64.16
66373;SHT30;53168;51.146;17.120;2024-02-14T12:49:12;11.17;63.49
66373;SHT30;53168;51.146;17.120;2024-02-14T12:51:49;11.36;63.04
66373;SHT30;53168;51.146;17.120;2024-02-14T12:54:24;11.52;62.98
66373;SHT30;53168;51.146;17.120;2024-02-14T12:56:59;11.70;62.69
66373;SHT30;53168;51.146;17.120;2024-02-14T12:59:34;11.81;62.44
66373;SHT30;53168;51.146;17.120;2024-02-14T13:02:09;11.92;62.39
66373;SHT30;53168;51.146;17.120;2024-02-14T13:04:44;12.00;62.47
66373;SHT30;53168;51.146;17.120;2024-02-14T13:07:21;11.98;61.61
66373;SHT30;53168;51.146;17.120;2024-02-14T13:09:57;11.91;61.73
66373;SHT30;53168;51.146;17.120;2024-02-14T13:12:34;11.88;61.56
66373;SHT30;53168;51.146;17.120;2024-02-14T13:15:09;11.90;61.59
66373;SHT30;53168;51.146;17.120;2024-02-14T13:17:47;12.10;61.41
66373;SHT30;53168;51.146;17.120;2024-02-14T13:20:25;12.28;61.33
66373;SHT30;53168;51.146;17.120;2024-02-14T13:23:01;12.31;60.74
66373;SHT30;53168;51.146;17.120;2024-02-14T13:25:37;12.22;60.67
66373;SHT30;53168;51.146;17.120;2024-02-14T13:28:12;12.12;60.53
66373;SHT30;53168;51.146;17.120;2024-02-14T13:30:46;12.05;60.82
66373;SHT30;53168;51.146;17.120;2024-02-14T13:33:27;11.95;60.93
66373;SHT30;53168;51.146;17.120;2024-02-14T13:36:03;11.85;60.98
66373;SHT30;53168;51.146;17.120;2024-02-14T13:38:40;11.76;61.28
66373;SHT30;53168;51.146;17.120;2024-02-14T13:41:16;11.74;61.18
66373;SHT30;53168;51.146;17.120;2024-02-14T13:43:51;11.72;60.78
66373;SHT30;53168;51.146;17.120;2024-02-14T13:46:25;11.74;61.01
66373;SHT30;53168;51.146;17.120;2024-02-14T13:49:00;11.74;60.80
66373;SHT30;53168;51.146;17.120;2024-02-14T13:51:50;11.75;60.85
66373;SHT30;53168;51.146;17.120;2024-02-14T13:54:26;11.76;60.65
66373;SHT30;53168;51.146;17.120;2024-02-14T13:57:00;11.74;60.67
66373;SHT30;53168;51.146;17.120;2024-02-14T13:59:35;11.80;60.69
66373;SHT30;53168;51.146;17.120;2024-02-14T14:02:10;12.07;60.37
66373;SHT30;53168;51.146;17.120;2024-02-14T14:04:46;12.60;59.62
66373;SHT30;53168;51.146;17.120;2024-02-14T14:07:21;12.65;59.25
66373;SHT30;53168;51.146;17.120;2024-02-14T14:09:57;12.60;59.72
66373;SHT30;53168;51.146;17.120;2024-02-14T14:12:32;12.57;60.01
66373;SHT30;53168;51.146;17.120;2024-02-14T14:15:09;12.43;60.11
66373;SHT30;53168;51.146;17.120;2024-02-14T14:17:49;12.24;60.25
66373;SHT30;53168;51.146;17.120;2024-02-14T14:20:25;12.00;60.08
66373;SHT30;53168;51.146;17.120;2024-02-14T14:23:03;11.76;60.37
66373;SHT30;53168;51.146;17.120;2024-02-14T14:25:43;11.58;60.75
66373;SHT30;53168;51.146;17.120;2024-02-14T14:28:19;11.47;60.92
66373;SHT30;53168;51.146;17.120;2024-02-14T14:30:56;11.41;60.99
66373;SHT30;53168;51.146;17.120;2024-02-14T14:33:37;11.36;61.08
66373;SHT30;53168;51.146;17.120;2024-02-14T14:36:15;11.32;61.21
66373;SHT30;53168;51.146;17.120;2024-02-14T14:38:52;11.27;61.34
66373;SHT30;53168;51.146;17.120;2024-02-14T14:41:29;11.18;61.52
66373;SHT30;53168;51.146;17.120;2024-02-14T14:44:19;11.08;61.63
66373;SHT30;53168;51.146;17.120;2024-02-14T14:47:09;10.95;61.88
66373;SHT30;53168;51.146;17.120;2024-02-14T14:49:48;10.87;62.07
66373;SHT30;53168;51.146;17.120;2024-02-14T14:52:27;10.81;62.27
66373;SHT30;53168;51.146;17.120;2024-02-14T14:55:06;10.76;62.35
66373;SHT30;53168;51.146;17.120;2024-02-14T14:57:47;10.71;62.45
66373;SHT30;53168;51.146;17.120;2024-02-14T15:00:35;10.65;62.36
66373;SHT30;53168;51.146;17.120;2024-02-14T15:03:14;10.61;62.57
66373;SHT30;53168;51.146;17.120;2024-02-14T15:05:52;10.59;62.64
66373;SHT30;53168;51.146;17.120;2024-02-14T15:08:32;10.58;62.74
66373;SHT30;53168;51.146;17.120;2024-02-14T15:11:13;10.58;62.84
66373;SHT30;53168;51.146;17.120;2024-02-14T15:13:55;10.59;62.94
66373;SHT30;53168;51.146;17.120;2024-02-14T15:16:35;10.59;63.03
66373;SHT30;53168;51.146;17.120;2024-02-14T15:19:12;10.56;63.12
66373;SHT30;53168;51.146;17.120;2024-02-14T15:21:49;10.54;63.31
66373;SHT30;53168;51.146;17.120;2024-02-14T15:24:29;10.50;63.41
66373;SHT30;53168;51.146;17.120;2024-02-14T15:27:07;10.44;63.54
66373;SHT30;53168;51.146;17.120;2024-02-14T15:29:46;10.42;63.64
66373;SHT30;53168;51.146;17.120;2024-02-14T15:46:13;10.25;64.05
66373;SHT30;53168;51.146;17.120;2024-02-14T15:48:50;10.22;64.15
66373;SHT30;53168;51.146;17.120;2024-02-14T15:51:26;10.19;64.20
66373;SHT30;53168;51.146;17.120;2024-02-14T15:54:02;10.17;64.28
66373;SHT30;53168;51.146;17.120;2024-02-14T15:56:40;10.15;64.35
66373;SHT30;53168;51.146;17.120;2024-02-14T15:59:15;10.12;64.41
66373;SHT30;53168;51.146;17.120;2024-02-14T16:01:50;10.10;64.53
66373;SHT30;53168;51.146;17.120;2024-02-14T16:04:25;10.09;64.61
66373;SHT30;53168;51.146;17.120;2024-02-14T16:07:00;10.06;64.70
66373;SHT30;53168;51.146;17.120;2024-02-14T16:09:35;10.05;64.73
66373;SHT30;53168;51.146;17.120;2024-02-14T16:12:10;10.05;64.80
66373;SHT30;53168;51.146;17.120;2024-02-14T16:14:46;10.04;64.82
66373;SHT30;53168;51.146;17.120;2024-02-14T16:17:21;10.04;64.83
66373;SHT30;53168;51.146;17.120;2024-02-14T16:19:55;10.03;64.82
66373;SHT30;53168;51.146;17.120;2024-02-14T16:22:30;10.02;64.88
66373;SHT30;53168;51.146;17.120;2024-02-14T16:25:07;10.01;64.84
66373;SHT30;53168;51.146;17.120;2024-02-14T16:27:44;10.01;64.72
66373;SHT30;53168;51.146;17.120;2024-02-14T16:30:29;10.02;64.73
66373;SHT30;53168;51.146;17.120;2024-02-14T16:33:07;10.02;64.70
66373;SHT30;53168;51.146;17.120;2024-02-14T16:35:43;10.03;64.69
66373;SHT30;53168;51.146;17.120;2024-02-14T16:38:18;10.02;64.78
66373;SHT30;53168;51.146;17.120;2024-02-14T16:40:58;10.00;64.83
66373;SHT30;53168;51.146;17.120;2024-02-14T16:43:35;9.98;64.97
66373;SHT30;53168;51.146;17.120;2024-02-14T16:46:11;9.98;65.19
66373;SHT30;53168;51.146;17.120;2024-02-14T16:48:46;9.95;65.31
66373;SHT30;53168;51.146;17.120;2024-02-14T16:51:21;9.94;65.43
66373;SHT30;53168;51.146;17.120;2024-02-14T17:05:27;9.84;66.09
66373;SHT30;53168;51.146;17.120;2024-02-14T17:08:02;9.83;66.10
66373;SHT30;53168;51.146;17.120;2024-02-14T17:10:37;9.81;66.20
66373;SHT30;53168;51.146;17.120;2024-02-14T17:13:14;9.78;66.36
66373;SHT30;53168;51.146;17.120;2024-02-14T17:15:48;9.75;66.40
66373;SHT30;53168;51.146;17.120;2024-02-14T17:18:27;9.75;66.43
66373;SHT30;53168;51.146;17.120;2024-02-14T17:21:04;9.75;66.50
66373;SHT30;53168;51.146;17.120;2024-02-14T17:23:40;9.74;66.59
66373;SHT30;53168;51.146;17.120;2024-02-14T17:26:14;9.71;66.69
66373;SHT30;53168;51.146;17.120;2024-02-14T17:28:52;9.70;66.77
66373;SHT30;53168;51.146;17.120;2024-02-14T17:31:26;9.70;66.78